Le Mars, IA

10:45 PM CST on February 13, 2016 (GMT -0600)
Le Mars Municipal

Weather History for KLRJ - December, 2013

Change the Weather History Date:

Thursday, December 19, 2013

  Actual Average Record
Temperature  
Mean Temperature 22 °F -  
Max Temperature 30 °F 30 °F 95 °F (1997)
Min Temperature 12 °F 11 °F -20 °F (1981)
Degree Days  
Heating Degree Days 43    
Moisture  
Dew Point 15 °F    
Average Humidity 83    
Maximum Humidity 93    
Minimum Humidity 79    
Precipitation  
Precipitation 0.00 in - - ()
Sea Level Pressure  
Sea Level Pressure 29.90 in    
Wind  
Wind Speed 10 mph (NNE)    
Max Wind Speed 18 mph    
Max Gust Speed 26 mph    
Visibility 10 miles    
Events Rain , Snow    
Averages and records for this station are not official NWS values.
T = Trace of Precipitation, MM = Missing Value Source: NWS Daily Summary

Daily Weather History Graph

Daily Weather History Graph

Search for Another Location

Airport or City:

Trip Planner

Search our weather history database for the weather conditions in past years. The results will help you decide how hot, cold, wet, or windy it might be!

Date:

Astronomy

Dec. 19, 2013 Rise Set
Actual Time 7:51 AM CST 4:53 PM CST
Civil Twilight 7:18 AM CST 5:25 PM CST
Nautical Twilight 6:43 AM CST 6:01 PM CST
Astronomical Twilight 6:08 AM CST 6:35 PM CST
Moon 7:22 PM CST (12/19) 9:07 AM CST (12/19)
Length of Visible Light 10h 06m
Length of Day
9h 01m
Waning Gibbous, 95% of the Moon is Illuminated
Dec 19
Waning Gibbous
Dec 25
Last Quarter
Jan 1
New
Jan 7
First Quarter
Jan 15
Full

Hourly Weather History & Observations

Time (CST) Temp. Windchill Dew Point Humidity Pressure Visibility Wind Dir Wind Speed Gust Speed Precip Events Conditions
12:15 AM 24.8 °F - 23.0 °F 93% 29.79 in 10.0 mi Calm Calm - N/A   Unknown
12:35 AM 23.0 °F - 21.2 °F 93% 29.80 in 10.0 mi Calm Calm - N/A   Unknown
12:55 AM 23.0 °F 18.4 °F 21.2 °F 93% 29.80 in 10.0 mi North 3.5 mph - N/A   Unknown
1:15 AM 24.8 °F 19.1 °F 23.0 °F 93% 29.80 in 10.0 mi NNE 4.6 mph - N/A   Unknown
1:35 AM 28.4 °F 21.2 °F 24.8 °F 86% 29.81 in 10.0 mi NNE 6.9 mph - N/A   Unknown
1:55 AM 30.2 °F 20.2 °F 26.6 °F 86% 29.82 in 10.0 mi NE 12.7 mph 18.4 mph N/A   Clear
2:15 AM 30.2 °F 20.2 °F 26.6 °F 86% 29.82 in 10.0 mi NNE 12.7 mph - N/A   Unknown
2:35 AM 30.2 °F 20.8 °F 24.8 °F 80% 29.83 in 10.0 mi NNE 11.5 mph - N/A   Unknown
2:55 AM 28.4 °F 19.1 °F 24.8 °F 86% 29.83 in 10.0 mi NNE 10.4 mph - N/A   Clear
3:15 AM 28.4 °F 17.0 °F 23.0 °F 80% 29.84 in 10.0 mi NNE 15.0 mph 23.0 mph N/A   Unknown
3:35 AM 26.6 °F 14.3 °F 21.2 °F 80% 29.83 in 10.0 mi NNE 16.1 mph 23.0 mph N/A   Unknown
3:55 AM 26.6 °F 15.7 °F 21.2 °F 80% 29.84 in 10.0 mi NNE 12.7 mph - N/A   Unknown
4:15 AM 24.8 °F 14.6 °F 21.2 °F 86% 29.85 in 10.0 mi NNE 10.4 mph - N/A   Unknown
4:35 AM 24.8 °F 13.4 °F 19.4 °F 80% 29.84 in 10.0 mi NNE 12.7 mph 20.7 mph N/A   Unknown
4:55 AM 24.8 °F 14.0 °F 19.4 °F 80% 29.87 in 10.0 mi NNE 11.5 mph 19.6 mph N/A   Unknown
5:15 AM 23.0 °F 11.1 °F 19.4 °F 86% 29.87 in 10.0 mi NNE 12.7 mph - N/A   Unknown
5:35 AM 23.0 °F 12.4 °F 19.4 °F 86% 29.87 in 10.0 mi NNE 10.4 mph 18.4 mph N/A   Unknown
5:55 AM 23.0 °F 11.1 °F 17.6 °F 80% 29.87 in 10.0 mi NNE 12.7 mph - N/A   Unknown
6:15 AM 21.2 °F 8.3 °F 17.6 °F 86% 29.89 in 10.0 mi NNE 13.8 mph 21.9 mph N/A   Unknown
6:35 AM 21.2 °F 10.1 °F 17.6 °F 86% 29.90 in 10.0 mi NNE 10.4 mph - N/A   Unknown
6:55 AM 19.4 °F 6.0 °F 15.8 °F 86% 29.91 in 10.0 mi NNE 13.8 mph 19.6 mph N/A   Unknown
7:15 AM 19.4 °F 6.6 °F 15.8 °F 86% 29.92 in 10.0 mi NNE 12.7 mph - N/A   Unknown
7:35 AM 19.4 °F 6.0 °F 15.8 °F 86% 29.93 in 10.0 mi NNE 13.8 mph - N/A   Unknown
7:55 AM 17.6 °F 5.7 °F 14.0 °F 86% 29.93 in 10.0 mi NNE 10.4 mph - N/A   Unknown
8:15 AM 17.6 °F 3.7 °F 14.0 °F 86% 29.93 in 10.0 mi NNE 13.8 mph 25.3 mph N/A   Clear
8:35 AM 17.6 °F 3.7 °F 14.0 °F 86% 29.94 in 10.0 mi NNE 13.8 mph 19.6 mph N/A   Partly Cloudy
8:55 AM 15.8 °F -0.2 °F 12.2 °F 86% 29.92 in 10.0 mi NNE 17.3 mph - N/A   Clear
9:15 AM 15.8 °F 0.9 °F 12.2 °F 86% 29.91 in 10.0 mi NNE 15.0 mph 25.3 mph N/A   Clear
9:35 AM 15.8 °F 2.1 °F 12.2 °F 86% 29.93 in 10.0 mi NE 12.7 mph 20.7 mph N/A   Scattered Clouds
9:55 AM 15.8 °F 2.1 °F 12.2 °F 86% 29.93 in 10.0 mi NE 12.7 mph 19.6 mph N/A   Scattered Clouds
10:15 AM 15.8 °F 0.3 °F 12.2 °F 86% 29.92 in 10.0 mi NE 16.1 mph 24.2 mph N/A   Clear
10:35 AM 17.6 °F 4.3 °F 12.2 °F 79% 29.95 in 10.0 mi NE 12.7 mph - N/A   Partly Cloudy
10:55 AM 17.6 °F 6.4 °F 12.2 °F 79% 29.95 in 10.0 mi North 9.2 mph 16.1 mph N/A   Mostly Cloudy
11:15 AM 17.6 °F 3.7 °F 12.2 °F 79% 29.93 in - NNE 13.8 mph - N/A   Mostly Cloudy
11:35 AM 17.6 °F 2.7 °F 12.2 °F 79% 29.93 in 10.0 mi NNE 16.1 mph 23.0 mph N/A   Overcast
11:55 AM 17.6 °F 3.2 °F 12.2 °F 79% 29.92 in 10.0 mi NNE 15.0 mph 21.9 mph N/A   Mostly Cloudy
12:15 PM 19.4 °F 6.0 °F 14.0 °F 80% 29.92 in 10.0 mi NE 13.8 mph - N/A   Mostly Cloudy
12:35 PM 19.4 °F 5.5 °F 14.0 °F 80% 29.90 in 10.0 mi NE 15.0 mph - N/A   Overcast
12:55 PM 19.4 °F 5.5 °F 14.0 °F 80% 29.89 in 10.0 mi NE 15.0 mph - N/A   Overcast
1:15 PM 19.4 °F 6.6 °F 14.0 °F 80% 29.88 in 10.0 mi NNE 12.7 mph 20.7 mph N/A   Mostly Cloudy
1:35 PM 19.4 °F 5.0 °F 14.0 °F 80% 29.87 in 10.0 mi NNE 16.1 mph - N/A   Mostly Cloudy
1:55 PM 19.4 °F 5.5 °F 14.0 °F 80% 29.88 in 10.0 mi NNE 15.0 mph 21.9 mph N/A   Overcast
2:15 PM 19.4 °F 6.6 °F 14.0 °F 80% 29.87 in 10.0 mi NNE 12.7 mph 19.6 mph N/A   Overcast
2:35 PM 17.6 °F 3.7 °F 12.2 °F 79% 29.87 in 10.0 mi NNE 13.8 mph - N/A   Overcast
2:55 PM 17.6 °F 3.2 °F 12.2 °F 79% 29.87 in 10.0 mi NNE 15.0 mph 23.0 mph N/A   Overcast
3:15 PM 17.6 °F 4.3 °F 12.2 °F 79% 29.87 in 10.0 mi NE 12.7 mph 20.7 mph N/A   Overcast
3:35 PM 17.6 °F 2.7 °F 12.2 °F 79% 29.86 in 10.0 mi NNE 16.1 mph 24.2 mph N/A   Overcast
3:55 PM 15.8 °F 2.1 °F 12.2 °F 86% 29.88 in 10.0 mi NNE 12.7 mph 20.7 mph N/A Snow Light Snow
4:15 PM 17.6 °F 3.7 °F 12.2 °F 79% 29.89 in 10.0 mi NNE 13.8 mph 23.0 mph N/A   Overcast
4:35 PM 17.6 °F 2.2 °F 12.2 °F 79% 29.88 in 10.0 mi NNE 17.3 mph 24.2 mph N/A   Overcast
4:55 PM 17.6 °F 5.0 °F 12.2 °F 79% 29.90 in 10.0 mi NNE 11.5 mph 18.4 mph N/A   Overcast
5:15 PM 15.8 °F 1.4 °F 12.2 °F 86% 29.91 in 10.0 mi North 13.8 mph - N/A   Unknown
5:35 PM 15.8 °F 2.1 °F 12.2 °F 86% 29.91 in 10.0 mi North 12.7 mph - N/A   Unknown
5:55 PM 15.8 °F 2.1 °F 12.2 °F 86% 29.92 in 10.0 mi North 12.7 mph - N/A   Unknown
6:15 PM 17.6 °F 3.7 °F 12.2 °F 79% 29.92 in 10.0 mi NNE 13.8 mph 20.7 mph N/A   Unknown
6:35 PM 17.6 °F 3.7 °F 14.0 °F 86% 29.92 in 10.0 mi North 13.8 mph - N/A Snow Light Snow
6:55 PM 17.6 °F 3.2 °F 12.2 °F 79% 29.93 in 10.0 mi NNE 15.0 mph 21.9 mph N/A   Light Freezing Rain
7:15 PM 17.6 °F 2.7 °F 12.2 °F 79% 29.94 in 10.0 mi NNE 16.1 mph 23.0 mph N/A Rain Light Freezing Rain
7:35 PM 17.6 °F 1.7 °F 12.2 °F 79% 29.92 in 10.0 mi NNE 18.4 mph 26.5 mph N/A Rain Light Freezing Rain
7:55 PM 15.8 °F 2.1 °F 12.2 °F 86% 29.92 in 10.0 mi NNE 12.7 mph 21.9 mph N/A Rain Light Freezing Rain
8:15 PM 15.8 °F 2.7 °F 12.2 °F 86% 29.93 in 10.0 mi NNE 11.5 mph 23.0 mph N/A Rain Light Freezing Rain
8:35 PM 15.8 °F 0.9 °F 12.2 °F 86% 29.93 in 10.0 mi NNE 15.0 mph 21.9 mph N/A   Light Freezing Rain
8:55 PM 15.8 °F 1.4 °F 12.2 °F 86% 29.94 in 10.0 mi NNE 13.8 mph 20.7 mph N/A   Unknown
9:15 PM 15.8 °F 2.7 °F 10.4 °F 79% 29.95 in 10.0 mi NNE 11.5 mph 20.7 mph N/A   Unknown
9:35 PM 15.8 °F 2.1 °F 10.4 °F 79% 29.96 in 10.0 mi NNE 12.7 mph - N/A   Unknown
9:55 PM 15.8 °F 1.4 °F 10.4 °F 79% 29.96 in 10.0 mi North 13.8 mph - N/A   Unknown
10:15 PM 15.8 °F 2.1 °F 10.4 °F 79% 29.96 in 10.0 mi North 12.7 mph 19.6 mph N/A Rain Light Freezing Rain
10:35 PM 15.8 °F 2.7 °F 12.2 °F 86% 29.97 in 10.0 mi North 11.5 mph 17.3 mph N/A   Unknown
10:55 PM 15.8 °F 0.9 °F 12.2 °F 86% 29.97 in 10.0 mi North 15.0 mph - N/A Snow Light Snow
11:15 PM 15.8 °F 1.4 °F 12.2 °F 86% 29.98 in 8.0 mi North 13.8 mph 20.7 mph N/A Rain Light Freezing Rain
11:35 PM 14.0 °F -0.8 °F 10.4 °F 86% 29.97 in 5.0 mi North 13.8 mph - N/A Snow Light Snow
11:55 PM 12.2 °F -2.5 °F 8.6 °F 85% 29.99 in 7.0 mi NNW 12.7 mph - N/A Snow Light Snow